Terminal Aerodrome Forecast
Issued by NWS

Home | Current Version | Previous Version | Graphics & Text | Print | Product List | Glossary On
Versions: 1 2 3 4 5 6 7 8 9 10 11 12 13 14 15 16 17 18
000
FTUS43 KTOP 252300
TAFFOE
TAF
KFOE 252320Z 2600/2624 18012G22KT P6SM VCTS SCT020 BKN050CB
     FM260400 18010KT P6SM VCTS BKN030CB
     FM260800 19008KT P6SM BKN025
     FM261500 22008KT P6SM SCT050=

USA.gov is the U.S. government's official web portal to all federal, state and local government web resources and services.